createdAt,value
2022-10-13T00:01:11.045Z,23.10
2022-10-13T00:03:42.088Z,21.60
2022-10-13T00:08:38.353Z,21.95
2022-10-13T00:11:14.324Z,21.25
2022-10-13T00:13:42.004Z,21.67
2022-10-13T00:16:09.818Z,25.02
2022-10-13T00:18:36.958Z,21.75
2022-10-13T00:21:11.171Z,21.75
2022-10-13T00:23:38.648Z,21.75
2022-10-13T00:26:07.027Z,21.45
2022-10-13T00:28:33.997Z,21.77
2022-10-13T00:31:00.883Z,22.70
2022-10-13T00:33:27.990Z,20.88
2022-10-13T00:35:54.896Z,21.63
2022-10-13T00:38:23.257Z,21.05
2022-10-13T00:40:53.061Z,21.25
2022-10-13T00:43:26.238Z,22.30
2022-10-13T00:45:54.059Z,23.13
2022-10-13T00:48:28.346Z,22.25
2022-10-13T00:50:56.507Z,22.33
2022-10-13T00:53:27.493Z,22.42
2022-10-13T00:55:55.698Z,21.83
2022-10-13T00:58:25.517Z,21.17
2022-10-13T01:00:53.579Z,21.17
2022-10-13T01:03:21.443Z,21.08
2022-10-13T01:05:50.418Z,22.55
2022-10-13T01:08:19.144Z,21.73
2022-10-13T01:11:22.871Z,21.73
2022-10-13T01:13:58.571Z,23.08
2022-10-13T01:16:54.530Z,22.83
2022-10-13T01:19:44.405Z,23.70
2022-10-13T01:22:26.587Z,22.05
2022-10-13T01:25:18.141Z,21.63
2022-10-13T01:28:22.290Z,21.58
2022-10-13T01:30:55.285Z,22.13
2022-10-13T01:33:30.198Z,21.45
2022-10-13T01:36:03.034Z,22.05
2022-10-13T01:38:59.238Z,22.15
2022-10-13T01:41:41.488Z,22.52
2022-10-13T01:44:23.788Z,22.85
2022-10-13T01:46:54.012Z,23.42
2022-10-13T01:49:27.272Z,23.10
2022-10-13T01:51:56.645Z,23.77
2022-10-13T01:54:23.471Z,22.85
2022-10-13T01:56:54.517Z,24.02
2022-10-13T02:02:08.349Z,24.40
2022-10-13T02:04:50.205Z,22.88
2022-10-13T02:07:27.687Z,25.15
2022-10-13T02:10:05.891Z,24.50
2022-10-13T02:12:38.603Z,24.63
2022-10-13T02:15:09.821Z,23.77
2022-10-13T02:17:36.661Z,26.33
2022-10-13T02:20:06.603Z,26.23
2022-10-13T02:22:41.589Z,24.13
2022-10-13T02:25:09.093Z,24.77
2022-10-13T02:27:35.863Z,30.73
2022-10-13T02:30:02.974Z,30.85
2022-10-13T02:32:31.114Z,25.00
2022-10-13T02:34:57.909Z,25.92
2022-10-13T02:37:27.302Z,25.63
2022-10-13T02:39:54.167Z,24.05
2022-10-13T02:42:21.305Z,29.73
2022-10-13T02:44:48.356Z,24.38
2022-10-13T02:47:15.156Z,23.80
2022-10-13T02:49:41.944Z,23.33
2022-10-13T02:52:08.741Z,24.92
2022-10-13T02:54:37.752Z,23.90
2022-10-13T02:57:04.511Z,24.00
2022-10-13T02:59:31.295Z,22.73
2022-10-13T03:01:58.050Z,22.20
2022-10-13T03:04:26.212Z,24.35
2022-10-13T03:06:53.777Z,26.65
2022-10-13T03:09:20.572Z,25.15
2022-10-13T03:11:47.356Z,25.48
2022-10-13T03:14:14.184Z,25.58
2022-10-13T03:16:42.171Z,26.27
2022-10-13T03:19:10.282Z,25.08
2022-10-13T03:21:38.647Z,25.90
2022-10-13T03:24:05.944Z,27.30
2022-10-13T03:26:33.370Z,27.98
2022-10-13T03:29:00.140Z,25.23
2022-10-13T03:31:27.690Z,26.45
2022-10-13T03:34:01.868Z,25.55
2022-10-13T03:36:30.195Z,27.30
2022-10-13T03:38:56.986Z,28.30
2022-10-13T03:41:23.813Z,25.52
2022-10-13T03:43:50.773Z,25.85
2022-10-13T03:46:19.129Z,26.40
2022-10-13T03:48:47.399Z,27.48
2022-10-13T03:51:18.944Z,27.73
2022-10-13T03:53:46.718Z,27.05
2022-10-13T03:56:17.588Z,26.70
2022-10-13T03:58:55.547Z,27.20
2022-10-13T04:01:23.996Z,29.00
2022-10-13T04:03:54.024Z,28.77
2022-10-13T04:06:21.291Z,23.67
2022-10-13T04:08:49.540Z,27.02
2022-10-13T04:11:16.961Z,27.23
2022-10-13T04:13:44.927Z,28.15
2022-10-13T04:16:20.422Z,29.52
2022-10-13T04:18:52.954Z,31.33
2022-10-13T04:21:20.351Z,28.83
2022-10-13T04:23:47.292Z,30.42
2022-10-13T04:26:22.451Z,28.95
2022-10-13T04:28:51.271Z,27.23
2022-10-13T04:31:18.200Z,29.13
2022-10-13T04:33:45.893Z,28.42
2022-10-13T04:36:14.783Z,28.77
2022-10-13T04:38:42.862Z,32.35
2022-10-13T04:41:10.741Z,28.45
2022-10-13T04:43:37.703Z,28.60
2022-10-13T04:46:09.828Z,28.35
2022-10-13T04:48:36.631Z,28.17
2022-10-13T04:51:12.919Z,27.75
2022-10-13T04:53:40.774Z,29.83
2022-10-13T04:56:15.494Z,28.15
2022-10-13T04:58:44.261Z,29.35
2022-10-13T05:01:21.394Z,29.48
2022-10-13T05:03:54.523Z,27.25
2022-10-13T05:06:24.442Z,29.00
2022-10-13T05:08:56.203Z,29.05
2022-10-13T05:11:24.444Z,28.83
2022-10-13T05:13:51.272Z,28.38
2022-10-13T05:16:19.836Z,30.52
2022-10-13T05:18:47.595Z,28.98
2022-10-13T05:21:20.051Z,29.88
2022-10-13T05:23:46.868Z,31.70
2022-10-13T05:26:16.616Z,30.58
2022-10-13T05:28:44.492Z,29.42
2022-10-13T05:31:19.696Z,31.27
2022-10-13T05:33:47.413Z,30.38
2022-10-13T05:36:30.854Z,30.85
2022-10-13T05:38:59.773Z,31.60
2022-10-13T05:41:28.012Z,32.17
2022-10-13T05:43:59.091Z,32.33
2022-10-13T05:46:26.470Z,32.10
2022-10-13T05:48:53.543Z,31.20
2022-10-13T05:51:27.048Z,31.40
2022-10-13T05:54:10.586Z,31.60
2022-10-13T05:56:42.667Z,31.77
2022-10-13T05:59:12.333Z,30.27
2022-10-13T06:01:42.391Z,33.95
2022-10-13T06:04:18.693Z,27.30
2022-10-13T06:06:46.171Z,34.42
2022-10-13T06:09:13.158Z,29.85
2022-10-13T06:11:40.312Z,31.40
2022-10-13T06:14:07.053Z,34.72
2022-10-13T06:16:36.486Z,30.10
2022-10-13T06:19:04.631Z,30.40
2022-10-13T06:21:31.667Z,32.00
2022-10-13T06:23:58.491Z,31.67
2022-10-13T06:26:25.272Z,31.92
2022-10-13T06:28:56.934Z,31.20
2022-10-13T06:31:26.048Z,35.03
2022-10-13T06:33:52.796Z,32.80
2022-10-13T06:36:19.581Z,33.33
2022-10-13T06:38:47.075Z,32.63
2022-10-13T06:41:14.451Z,32.20
2022-10-13T06:43:41.540Z,31.45
2022-10-13T06:46:11.941Z,31.13
2022-10-13T06:48:38.918Z,33.65
2022-10-13T06:51:09.264Z,31.20
2022-10-13T06:53:36.319Z,31.02
2022-10-13T06:56:06.143Z,30.70
2022-10-13T06:58:34.044Z,32.05
2022-10-13T07:01:00.892Z,30.05
2022-10-13T07:03:27.860Z,30.02
2022-10-13T07:05:54.663Z,27.88
2022-10-13T07:08:21.677Z,29.13
2022-10-13T07:10:48.934Z,29.88
2022-10-13T07:13:15.770Z,28.42
2022-10-13T07:15:42.619Z,29.70
2022-10-13T07:18:09.393Z,28.23
2022-10-13T07:20:36.190Z,26.58
2022-10-13T07:23:04.049Z,28.52
2022-10-13T07:25:30.845Z,31.35
2022-10-13T07:27:59.267Z,30.17
2022-10-13T07:30:27.070Z,30.98
2022-10-13T07:32:53.930Z,30.75
2022-10-13T07:35:24.790Z,31.10
2022-10-13T07:37:54.997Z,30.13
2022-10-13T07:40:21.848Z,29.90
2022-10-13T07:42:48.739Z,30.75
2022-10-13T07:45:15.674Z,30.48
2022-10-13T07:47:42.428Z,29.38
2022-10-13T07:50:10.354Z,29.42
2022-10-13T07:52:37.205Z,28.27
2022-10-13T07:55:04.563Z,29.48
2022-10-13T07:57:31.308Z,28.80
2022-10-13T07:59:58.158Z,28.25
2022-10-13T08:02:25.090Z,28.77
2022-10-13T08:04:51.983Z,28.10
2022-10-13T08:07:19.092Z,27.45
2022-10-13T08:09:46.654Z,27.83
2022-10-13T08:12:13.399Z,28.65
2022-10-13T08:14:40.235Z,26.50
2022-10-13T08:17:08.011Z,25.05
2022-10-13T08:19:34.935Z,26.20
2022-10-13T08:22:01.734Z,26.73
2022-10-13T08:24:29.600Z,26.88
2022-10-13T08:26:56.563Z,25.83
2022-10-13T08:29:24.362Z,27.35
2022-10-13T08:31:54.907Z,27.10
2022-10-13T08:34:23.763Z,28.02
2022-10-13T08:36:54.368Z,25.80
2022-10-13T08:39:23.658Z,26.48
2022-10-13T08:41:50.826Z,25.80
2022-10-13T08:47:25.242Z,23.55
2022-10-13T08:49:55.368Z,25.00
2022-10-13T08:52:30.057Z,22.52
2022-10-13T08:57:24.535Z,21.50
2022-10-13T08:59:52.575Z,22.25
2022-10-13T09:02:27.274Z,23.60
2022-10-13T09:04:54.418Z,23.85
2022-10-13T09:07:28.472Z,22.17
2022-10-13T09:09:55.758Z,23.55
2022-10-13T09:12:25.324Z,22.85
2022-10-13T09:15:05.368Z,22.90
2022-10-13T09:17:33.916Z,22.27
2022-10-13T09:20:23.192Z,22.60
2022-10-13T09:23:20.309Z,25.52
2022-10-13T09:25:50.076Z,22.75
2022-10-13T09:28:25.310Z,23.23
2022-10-13T09:31:09.171Z,23.20
2022-10-13T09:33:38.810Z,24.00
2022-10-13T09:36:11.703Z,23.10
2022-10-13T09:38:40.670Z,22.08
2022-10-13T09:41:15.899Z,23.42
2022-10-13T09:43:48.525Z,22.40
2022-10-13T09:46:49.112Z,22.15
2022-10-13T09:49:38.917Z,20.40
2022-10-13T09:52:18.700Z,22.55
2022-10-13T09:55:00.907Z,22.27
2022-10-13T09:57:30.754Z,22.02
2022-10-13T10:00:16.667Z,22.17
2022-10-13T10:03:12.458Z,23.63
2022-10-13T10:05:45.068Z,24.52
2022-10-13T10:08:33.639Z,23.95
2022-10-13T10:11:17.769Z,23.35
2022-10-13T10:13:44.599Z,25.50
2022-10-13T10:16:18.151Z,24.70
2022-10-13T10:19:08.791Z,24.80
2022-10-13T10:21:49.681Z,22.58
2022-10-13T10:26:59.571Z,24.10
2022-10-13T10:29:38.267Z,23.35
2022-10-13T10:32:19.834Z,23.80
2022-10-13T10:35:14.246Z,26.80
2022-10-13T10:38:07.190Z,25.00
2022-10-13T10:40:54.986Z,23.88
2022-10-13T10:43:43.748Z,25.13
2022-10-13T10:46:20.407Z,25.17
2022-10-13T10:48:50.357Z,26.42
2022-10-13T10:51:18.857Z,24.27
2022-10-13T10:54:19.408Z,25.42
2022-10-13T10:56:54.461Z,25.67
2022-10-13T10:59:29.359Z,25.38
2022-10-13T11:02:30.392Z,22.98
2022-10-13T11:07:32.156Z,24.25
2022-10-13T11:10:17.916Z,24.27
2022-10-13T11:12:50.827Z,24.58
2022-10-13T11:15:23.481Z,24.48
2022-10-13T11:17:50.570Z,24.40
2022-10-13T11:20:18.037Z,23.90
2022-10-13T11:22:59.701Z,26.27
2022-10-13T11:25:35.813Z,25.30
2022-10-13T11:28:23.634Z,24.50
2022-10-13T11:31:13.420Z,25.45
2022-10-13T11:33:40.099Z,24.55
2022-10-13T11:36:29.712Z,25.40
2022-10-13T11:39:28.735Z,24.33
2022-10-13T11:42:20.125Z,23.83
2022-10-13T11:44:56.238Z,23.85
2022-10-13T11:47:56.914Z,23.17
2022-10-13T11:50:49.043Z,23.08
2022-10-13T11:53:28.162Z,25.02
2022-10-13T11:56:01.591Z,26.88
2022-10-13T11:58:30.467Z,24.50
2022-10-13T12:01:08.700Z,24.50
2022-10-13T12:03:42.085Z,25.00
2022-10-13T12:06:33.372Z,25.25
2022-10-13T12:09:15.953Z,24.13
2022-10-13T12:11:44.404Z,24.20
2022-10-13T12:14:28.795Z,28.88
2022-10-13T12:16:58.565Z,25.45
2022-10-13T12:19:28.759Z,24.25
2022-10-13T12:21:58.829Z,24.73
2022-10-13T12:24:31.079Z,26.00
2022-10-13T12:26:58.879Z,26.73
2022-10-13T12:29:30.236Z,25.15
2022-10-13T12:32:00.608Z,26.15
2022-10-13T12:34:30.014Z,24.75
2022-10-13T12:37:02.643Z,24.55
2022-10-13T12:39:31.984Z,24.63
2022-10-13T12:42:01.361Z,27.52
2022-10-13T12:44:30.837Z,25.38
2022-10-13T12:47:00.260Z,23.88
2022-10-13T12:49:29.734Z,23.52
2022-10-13T12:52:14.907Z,24.13
2022-10-13T12:54:56.146Z,25.45
2022-10-13T12:57:38.972Z,26.40
2022-10-13T13:00:19.931Z,26.58
2022-10-13T13:03:07.550Z,26.10
2022-10-13T13:05:51.579Z,23.80
2022-10-13T13:08:27.191Z,24.60
2022-10-13T13:10:55.950Z,24.95
2022-10-13T13:13:24.039Z,24.20
2022-10-13T13:15:51.286Z,23.52
2022-10-13T13:18:27.349Z,22.63
2022-10-13T13:20:54.823Z,23.95
2022-10-13T13:23:23.424Z,21.55
2022-10-13T13:26:11.256Z,22.15
2022-10-13T13:28:38.810Z,23.83
2022-10-13T13:31:05.705Z,24.45
2022-10-13T13:33:32.718Z,24.38
2022-10-13T13:35:59.903Z,24.55
2022-10-13T13:38:26.747Z,23.92
2022-10-13T13:40:53.580Z,23.88
2022-10-13T13:43:20.521Z,23.17
2022-10-13T13:45:47.956Z,23.95
2022-10-13T13:48:18.475Z,24.10
2022-10-13T13:50:45.225Z,24.35
2022-10-13T13:53:11.960Z,24.00
2022-10-13T13:55:39.211Z,24.42
2022-10-13T13:58:06.716Z,23.48
2022-10-13T14:00:33.763Z,26.90
2022-10-13T14:03:00.691Z,23.38
2022-10-13T14:05:27.517Z,22.95
2022-10-13T14:07:56.059Z,23.35
2022-10-13T14:10:22.895Z,24.13
2022-10-13T14:12:49.998Z,26.38
2022-10-13T14:15:16.860Z,23.95
2022-10-13T14:17:43.643Z,23.48
2022-10-13T14:20:10.902Z,23.45
2022-10-13T14:22:38.801Z,24.50
2022-10-13T14:25:07.316Z,25.20
2022-10-13T14:27:35.305Z,24.10
2022-10-13T14:30:03.548Z,23.33
2022-10-13T14:32:30.359Z,22.83
2022-10-13T14:34:57.122Z,23.25
2022-10-13T14:37:26.718Z,23.92
2022-10-13T14:39:55.840Z,22.88
2022-10-13T14:42:22.693Z,25.73
2022-10-13T14:44:50.075Z,22.98
2022-10-13T14:47:16.869Z,23.02
2022-10-13T14:49:43.694Z,23.90
2022-10-13T14:52:10.602Z,23.42
2022-10-13T14:54:40.086Z,23.80
2022-10-13T14:57:15.965Z,25.15
2022-10-13T14:59:43.736Z,22.58
2022-10-13T15:02:14.672Z,24.20
2022-10-13T15:04:51.252Z,22.85
2022-10-13T15:07:18.963Z,23.83
2022-10-13T15:09:53.280Z,23.60
2022-10-13T15:12:28.218Z,23.52
2022-10-13T15:14:55.111Z,23.30
2022-10-13T15:17:21.996Z,25.42
2022-10-13T15:19:48.737Z,24.85
2022-10-13T15:22:15.694Z,25.23
2022-10-13T15:24:43.517Z,23.30
2022-10-13T15:27:10.286Z,22.98
2022-10-13T15:29:37.145Z,22.98
2022-10-13T15:32:09.914Z,23.98
2022-10-13T15:34:39.640Z,23.73
2022-10-13T15:37:07.166Z,23.05
2022-10-13T15:39:33.980Z,24.63
2022-10-13T15:42:00.816Z,23.65
2022-10-13T15:44:27.926Z,22.55
2022-10-13T15:47:07.962Z,24.30
2022-10-13T15:49:44.050Z,22.10
2022-10-13T15:52:10.930Z,20.77
2022-10-13T15:54:37.725Z,21.10
2022-10-13T15:57:04.525Z,20.92
2022-10-13T15:59:31.474Z,20.90
2022-10-13T16:01:58.257Z,21.08
2022-10-13T16:04:25.197Z,24.42
2022-10-13T16:06:52.200Z,21.77
2022-10-13T16:09:19.894Z,22.15
2022-10-13T16:11:48.281Z,20.00
2022-10-13T16:14:18.537Z,20.08
2022-10-13T16:16:46.285Z,20.60
2022-10-13T16:19:14.911Z,22.20
2022-10-13T16:21:43.202Z,22.90
2022-10-13T16:24:10.542Z,21.58
2022-10-13T16:26:38.689Z,21.10
2022-10-13T16:29:07.766Z,21.27
2022-10-13T16:31:35.211Z,21.52
2022-10-13T16:34:03.913Z,22.35
2022-10-13T16:36:31.575Z,27.73
2022-10-13T16:39:00.421Z,23.02
2022-10-13T16:41:28.761Z,22.27
2022-10-13T16:43:55.745Z,22.17
2022-10-13T16:46:24.202Z,21.48
2022-10-13T16:48:52.652Z,22.25
2022-10-13T16:51:25.301Z,22.57
2022-10-13T16:56:22.392Z,21.52
2022-10-13T16:59:01.090Z,22.25
2022-10-13T17:01:29.334Z,21.67
2022-10-13T17:03:56.962Z,22.13
2022-10-13T17:06:27.901Z,22.02
2022-10-13T17:11:29.226Z,20.33
2022-10-13T17:13:57.826Z,20.23
2022-10-13T17:16:25.221Z,20.83
2022-10-13T17:18:51.983Z,21.48
2022-10-13T17:21:19.178Z,20.15
2022-10-13T17:23:48.549Z,21.45
2022-10-13T17:26:17.025Z,20.60
2022-10-13T17:28:44.551Z,21.60
2022-10-13T17:31:12.771Z,22.17
2022-10-13T17:33:44.997Z,22.80
2022-10-13T17:36:23.354Z,23.10
2022-10-13T17:38:51.227Z,22.77
2022-10-13T17:41:19.298Z,22.45
2022-10-13T17:43:51.716Z,24.67
2022-10-13T17:46:43.100Z,21.25
2022-10-13T17:49:11.724Z,22.30
2022-10-13T17:51:39.919Z,21.73
2022-10-13T17:54:10.276Z,21.20
2022-10-13T17:56:41.423Z,21.58
2022-10-13T17:59:09.919Z,21.25
2022-10-13T18:01:37.333Z,24.45
2022-10-13T18:04:08.521Z,22.67
2022-10-13T18:06:44.040Z,22.48
2022-10-13T18:09:20.268Z,21.73
2022-10-13T18:11:50.786Z,21.90
2022-10-13T18:14:24.705Z,21.65
2022-10-13T18:16:52.432Z,22.35
2022-10-13T18:19:20.675Z,23.38
2022-10-13T18:21:47.677Z,22.38
2022-10-13T18:24:14.774Z,22.95
2022-10-13T18:26:41.556Z,23.42
2022-10-13T18:29:09.232Z,22.73
2022-10-13T18:31:39.755Z,23.42
2022-10-13T18:34:08.711Z,22.40
2022-10-13T18:36:41.892Z,22.27
2022-10-13T18:39:14.654Z,23.20
2022-10-13T18:41:45.448Z,22.13
2022-10-13T18:44:12.251Z,23.58
2022-10-13T18:46:39.801Z,21.58
2022-10-13T18:49:09.083Z,21.30
2022-10-13T18:51:39.528Z,21.70
2022-10-13T18:54:06.656Z,22.33
2022-10-13T18:56:34.645Z,21.92
2022-10-13T18:59:02.202Z,22.98
2022-10-13T19:01:31.712Z,22.17
2022-10-13T19:03:58.647Z,23.42
2022-10-13T19:06:28.009Z,24.85
2022-10-13T19:09:02.334Z,23.35
2022-10-13T19:11:30.196Z,23.33
2022-10-13T19:13:58.224Z,23.23
2022-10-13T19:16:26.392Z,24.40
2022-10-13T19:18:53.418Z,23.38
2022-10-13T19:21:21.520Z,24.05
2022-10-13T19:23:49.289Z,22.70
2022-10-13T19:26:25.110Z,22.85
2022-10-13T19:28:57.449Z,22.40
2022-10-13T19:31:27.110Z,22.30
2022-10-13T19:33:55.579Z,22.38
2022-10-13T19:36:30.389Z,25.13
2022-10-13T19:39:01.289Z,25.17
2022-10-13T19:41:29.693Z,24.00
2022-10-13T19:43:56.569Z,25.05
2022-10-13T19:46:24.374Z,26.10
2022-10-13T19:48:51.572Z,25.15
2022-10-13T19:51:18.444Z,25.90
2022-10-13T19:53:45.580Z,24.33
2022-10-13T19:56:25.682Z,24.05
2022-10-13T19:58:53.424Z,20.98
2022-10-13T20:01:22.545Z,23.60
2022-10-13T20:03:49.989Z,24.10
2022-10-13T20:06:17.455Z,24.17
2022-10-13T20:08:45.554Z,23.35
2022-10-13T20:11:20.691Z,23.63
2022-10-13T20:13:50.071Z,22.98
2022-10-13T20:16:19.580Z,24.00
2022-10-13T20:18:54.863Z,23.98
2022-10-13T20:21:22.233Z,23.35
2022-10-13T20:23:49.641Z,24.67
2022-10-13T20:26:17.136Z,25.38
2022-10-13T20:28:46.471Z,24.75
2022-10-13T20:31:14.821Z,25.15
2022-10-13T20:33:42.394Z,26.35
2022-10-13T20:36:13.705Z,25.23
2022-10-13T20:38:41.391Z,26.08
2022-10-13T20:41:15.589Z,24.92
2022-10-13T20:43:42.395Z,25.60
2022-10-13T20:46:10.276Z,25.38
2022-10-13T20:49:05.219Z,24.90
2022-10-13T20:51:26.181Z,24.35
2022-10-13T20:53:53.155Z,26.02
2022-10-13T20:56:23.133Z,25.13
2022-10-13T20:58:50.258Z,24.92
2022-10-13T21:01:19.013Z,24.30
2022-10-13T21:03:46.582Z,23.73
2022-10-13T21:06:14.784Z,24.42
2022-10-13T21:08:45.781Z,23.92
2022-10-13T21:13:41.323Z,24.00
2022-10-13T21:16:14.292Z,23.30
2022-10-13T21:18:44.230Z,23.50
2022-10-13T21:21:12.101Z,23.55
2022-10-13T21:23:40.319Z,23.77
2022-10-13T21:26:08.869Z,23.98
2022-10-13T21:28:39.471Z,23.10
2022-10-13T21:31:09.212Z,23.15
2022-10-13T21:33:38.060Z,24.33
2022-10-13T21:36:10.218Z,24.33
2022-10-13T21:38:37.026Z,24.13
2022-10-13T21:41:04.792Z,23.98
2022-10-13T21:43:31.762Z,23.92
2022-10-13T21:46:11.538Z,23.10
2022-10-13T21:48:43.101Z,22.48
2022-10-13T21:51:24.535Z,22.60
2022-10-13T21:53:56.431Z,21.75
2022-10-13T21:56:24.247Z,22.63
2022-10-13T21:58:51.113Z,23.17
2022-10-13T22:01:19.270Z,21.80
2022-10-13T22:03:49.807Z,22.00
2022-10-13T22:06:19.926Z,23.33
2022-10-13T22:08:48.976Z,22.08
2022-10-13T22:11:21.865Z,22.00
2022-10-13T22:13:48.762Z,22.15
2022-10-13T22:16:19.161Z,21.88
2022-10-13T22:18:46.929Z,21.20
2022-10-13T22:21:17.130Z,21.90
2022-10-13T22:23:45.021Z,22.30
2022-10-13T22:26:13.801Z,22.58
2022-10-13T22:28:41.069Z,22.05
2022-10-13T22:31:10.109Z,21.85
2022-10-13T22:33:37.933Z,21.70
2022-10-13T22:36:14.569Z,22.23
2022-10-13T22:38:41.427Z,22.23
2022-10-13T22:41:08.772Z,21.27
2022-10-13T22:43:36.750Z,21.20
2022-10-13T22:46:13.644Z,21.15
2022-10-13T22:48:41.739Z,22.67
2022-10-13T22:51:16.135Z,22.08
2022-10-13T22:53:43.378Z,22.23
2022-10-13T22:56:13.276Z,21.65
2022-10-13T22:58:40.470Z,21.52
2022-10-13T23:01:09.409Z,22.58
2022-10-13T23:03:36.715Z,23.80
2022-10-13T23:06:04.710Z,23.42
2022-10-13T23:08:31.469Z,23.40
2022-10-13T23:10:58.588Z,22.83
2022-10-13T23:13:25.814Z,22.55
2022-10-13T23:15:53.852Z,21.75
2022-10-13T23:18:25.812Z,23.90
2022-10-13T23:20:56.705Z,23.17
2022-10-13T23:23:26.187Z,23.27
2022-10-13T23:25:52.932Z,23.02
2022-10-13T23:28:19.734Z,24.13
2022-10-13T23:30:46.457Z,23.77
2022-10-13T23:33:13.217Z,22.88
2022-10-13T23:35:42.141Z,22.95
2022-10-13T23:38:10.209Z,23.45
2022-10-13T23:40:37.723Z,24.05
2022-10-13T23:43:06.178Z,24.30
2022-10-13T23:45:34.060Z,22.48
2022-10-13T23:48:00.856Z,24.17
2022-10-13T23:50:28.417Z,22.77
2022-10-13T23:52:56.153Z,23.40
2022-10-13T23:55:22.907Z,23.65
2022-10-13T23:57:49.677Z,25.05
